sensor_id;sensor_type;location;lat;lon;timestamp;temperature;humidity
2639;DHT22;1329;51.384;7.122;2024-01-27T00:00:51;5.50;68.10
2639;DHT22;1329;51.384;7.122;2024-01-27T00:03:20;5.50;68.30
2639;DHT22;1329;51.384;7.122;2024-01-27T00:05:47;5.50;68.60
2639;DHT22;1329;51.384;7.122;2024-01-27T00:08:14;5.50;69.30
2639;DHT22;1329;51.384;7.122;2024-01-27T00:10:41;5.50;69.50
2639;DHT22;1329;51.384;7.122;2024-01-27T00:13:11;5.40;69.00
2639;DHT22;1329;51.384;7.122;2024-01-27T00:15:39;5.40;68.40
2639;DHT22;1329;51.384;7.122;2024-01-27T00:18:06;5.40;68.20
2639;DHT22;1329;51.384;7.122;2024-01-27T00:20:35;5.40;69.00
2639;DHT22;1329;51.384;7.122;2024-01-27T00:23:03;5.30;69.20
2639;DHT22;1329;51.384;7.122;2024-01-27T00:25:31;5.30;70.30
2639;DHT22;1329;51.384;7.122;2024-01-27T00:27:58;5.30;71.50
2639;DHT22;1329;51.384;7.122;2024-01-27T00:30:26;5.30;72.60
2639;DHT22;1329;51.384;7.122;2024-01-27T00:32:53;5.30;73.20
2639;DHT22;1329;51.384;7.122;2024-01-27T00:35:20;5.30;73.20
2639;DHT22;1329;51.384;7.122;2024-01-27T00:37:49;5.30;72.90
2639;DHT22;1329;51.384;7.122;2024-01-27T00:40:16;5.30;71.90
2639;DHT22;1329;51.384;7.122;2024-01-27T00:42:44;5.20;71.40
2639;DHT22;1329;51.384;7.122;2024-01-27T00:45:11;5.20;70.90
2639;DHT22;1329;51.384;7.122;2024-01-27T00:47:38;5.20;70.70
2639;DHT22;1329;51.384;7.122;2024-01-27T00:50:06;5.20;70.90
2639;DHT22;1329;51.384;7.122;2024-01-27T00:52:34;5.20;70.90
2639;DHT22;1329;51.384;7.122;2024-01-27T00:55:05;5.20;70.40
2639;DHT22;1329;51.384;7.122;2024-01-27T00:57:32;5.10;68.80
2639;DHT22;1329;51.384;7.122;2024-01-27T01:00:00;5.10;68.70
2639;DHT22;1329;51.384;7.122;2024-01-27T01:02:27;5.10;68.70
2639;DHT22;1329;51.384;7.122;2024-01-27T01:04:55;5.00;68.70
2639;DHT22;1329;51.384;7.122;2024-01-27T01:07:22;5.00;68.10
2639;DHT22;1329;51.384;7.122;2024-01-27T01:09:49;5.00;68.10
2639;DHT22;1329;51.384;7.122;2024-01-27T01:12:18;5.00;67.50
2639;DHT22;1329;51.384;7.122;2024-01-27T01:14:46;4.90;67.10
2639;DHT22;1329;51.384;7.122;2024-01-27T01:17:13;4.90;67.90
2639;DHT22;1329;51.384;7.122;2024-01-27T01:19:41;4.90;68.20
2639;DHT22;1329;51.384;7.122;2024-01-27T01:22:08;4.90;68.00
2639;DHT22;1329;51.384;7.122;2024-01-27T01:24:35;4.90;67.80
2639;DHT22;1329;51.384;7.122;2024-01-27T01:27:02;4.80;68.00
2639;DHT22;1329;51.384;7.122;2024-01-27T01:29:31;4.80;67.70
2639;DHT22;1329;51.384;7.122;2024-01-27T01:31:58;4.80;67.50
2639;DHT22;1329;51.384;7.122;2024-01-27T01:34:28;4.70;68.00
2639;DHT22;1329;51.384;7.122;2024-01-27T01:36:55;4.70;68.00
2639;DHT22;1329;51.384;7.122;2024-01-27T01:39:23;4.70;67.50
2639;DHT22;1329;51.384;7.122;2024-01-27T01:41:51;4.70;68.70
2639;DHT22;1329;51.384;7.122;2024-01-27T01:44:18;4.70;68.50
2639;DHT22;1329;51.384;7.122;2024-01-27T01:46:47;4.70;68.90
2639;DHT22;1329;51.384;7.122;2024-01-27T01:49:14;4.70;67.90
2639;DHT22;1329;51.384;7.122;2024-01-27T01:51:41;4.70;68.40
2639;DHT22;1329;51.384;7.122;2024-01-27T01:54:09;4.70;67.90
2639;DHT22;1329;51.384;7.122;2024-01-27T01:56:38;4.60;68.00
2639;DHT22;1329;51.384;7.122;2024-01-27T01:59:05;4.60;68.60
2639;DHT22;1329;51.384;7.122;2024-01-27T02:01:33;4.60;69.20
2639;DHT22;1329;51.384;7.122;2024-01-27T02:04:04;4.60;69.30
2639;DHT22;1329;51.384;7.122;2024-01-27T02:06:32;4.60;68.50
2639;DHT22;1329;51.384;7.122;2024-01-27T02:08:59;4.60;69.20
2639;DHT22;1329;51.384;7.122;2024-01-27T02:11:26;4.60;68.90
2639;DHT22;1329;51.384;7.122;2024-01-27T02:13:54;4.50;68.30
2639;DHT22;1329;51.384;7.122;2024-01-27T02:16:21;4.50;68.30
2639;DHT22;1329;51.384;7.122;2024-01-27T02:18:49;4.50;68.30
2639;DHT22;1329;51.384;7.122;2024-01-27T02:21:17;4.50;68.70
2639;DHT22;1329;51.384;7.122;2024-01-27T02:23:45;4.50;69.00
2639;DHT22;1329;51.384;7.122;2024-01-27T02:26:14;4.50;69.70
2639;DHT22;1329;51.384;7.122;2024-01-27T02:28:41;4.50;69.30
2639;DHT22;1329;51.384;7.122;2024-01-27T02:31:09;4.50;69.50
2639;DHT22;1329;51.384;7.122;2024-01-27T02:33:36;4.40;69.40
2639;DHT22;1329;51.384;7.122;2024-01-27T02:36:04;4.40;69.70
2639;DHT22;1329;51.384;7.122;2024-01-27T02:38:32;4.40;70.00
2639;DHT22;1329;51.384;7.122;2024-01-27T02:40:59;4.40;70.10
2639;DHT22;1329;51.384;7.122;2024-01-27T02:43:28;4.40;70.60
2639;DHT22;1329;51.384;7.122;2024-01-27T02:45:56;4.40;70.40
2639;DHT22;1329;51.384;7.122;2024-01-27T02:48:23;4.40;70.50
2639;DHT22;1329;51.384;7.122;2024-01-27T02:50:50;4.30;70.60
2639;DHT22;1329;51.384;7.122;2024-01-27T02:53:17;4.30;70.70
2639;DHT22;1329;51.384;7.122;2024-01-27T02:55:45;4.30;70.60
2639;DHT22;1329;51.384;7.122;2024-01-27T02:58:12;4.30;70.80
2639;DHT22;1329;51.384;7.122;2024-01-27T03:00:41;4.30;71.10
2639;DHT22;1329;51.384;7.122;2024-01-27T03:03:08;4.20;70.50
2639;DHT22;1329;51.384;7.122;2024-01-27T03:05:35;4.20;70.70
2639;DHT22;1329;51.384;7.122;2024-01-27T03:08:03;4.20;70.60
2639;DHT22;1329;51.384;7.122;2024-01-27T03:10:30;4.20;70.50
2639;DHT22;1329;51.384;7.122;2024-01-27T03:12:58;4.10;70.40
2639;DHT22;1329;51.384;7.122;2024-01-27T03:15:25;4.10;69.50
2639;DHT22;1329;51.384;7.122;2024-01-27T03:17:53;4.10;68.80
2639;DHT22;1329;51.384;7.122;2024-01-27T03:20:20;4.10;68.80
2639;DHT22;1329;51.384;7.122;2024-01-27T03:22:47;4.00;69.30
2639;DHT22;1329;51.384;7.122;2024-01-27T03:25:15;4.00;69.30
2639;DHT22;1329;51.384;7.122;2024-01-27T03:27:43;4.00;69.30
2639;DHT22;1329;51.384;7.122;2024-01-27T03:30:10;4.00;69.20
2639;DHT22;1329;51.384;7.122;2024-01-27T03:32:37;4.00;69.00
2639;DHT22;1329;51.384;7.122;2024-01-27T03:35:07;3.90;68.80
2639;DHT22;1329;51.384;7.122;2024-01-27T03:37:34;3.90;67.40
2639;DHT22;1329;51.384;7.122;2024-01-27T03:40:01;3.80;67.70
2639;DHT22;1329;51.384;7.122;2024-01-27T03:42:28;3.90;67.70
2639;DHT22;1329;51.384;7.122;2024-01-27T03:44:55;3.80;67.10
2639;DHT22;1329;51.384;7.122;2024-01-27T03:47:23;3.80;67.00
2639;DHT22;1329;51.384;7.122;2024-01-27T03:49:50;3.80;67.70
2639;DHT22;1329;51.384;7.122;2024-01-27T03:52:18;3.80;67.70
2639;DHT22;1329;51.384;7.122;2024-01-27T03:54:46;3.70;67.50
2639;DHT22;1329;51.384;7.122;2024-01-27T03:57:13;3.70;68.00
2639;DHT22;1329;51.384;7.122;2024-01-27T03:59:40;3.70;68.80
2639;DHT22;1329;51.384;7.122;2024-01-27T04:02:08;3.70;69.70
2639;DHT22;1329;51.384;7.122;2024-01-27T04:04:35;3.70;69.80
2639;DHT22;1329;51.384;7.122;2024-01-27T04:07:02;3.70;70.30
2639;DHT22;1329;51.384;7.122;2024-01-27T04:09:31;3.70;71.10
2639;DHT22;1329;51.384;7.122;2024-01-27T04:11:58;3.70;71.30
2639;DHT22;1329;51.384;7.122;2024-01-27T04:14:25;3.60;71.90
2639;DHT22;1329;51.384;7.122;2024-01-27T04:16:52;3.60;72.20
2639;DHT22;1329;51.384;7.122;2024-01-27T04:19:19;3.60;73.00
2639;DHT22;1329;51.384;7.122;2024-01-27T04:21:47;3.60;73.90
2639;DHT22;1329;51.384;7.122;2024-01-27T04:24:14;3.60;74.80
2639;DHT22;1329;51.384;7.122;2024-01-27T04:26:43;3.60;76.30
2639;DHT22;1329;51.384;7.122;2024-01-27T04:29:10;3.60;77.20
2639;DHT22;1329;51.384;7.122;2024-01-27T04:31:40;3.60;79.00
2639;DHT22;1329;51.384;7.122;2024-01-27T04:34:08;3.60;79.70
2639;DHT22;1329;51.384;7.122;2024-01-27T04:36:35;3.60;80.30
2639;DHT22;1329;51.384;7.122;2024-01-27T04:39:03;3.60;80.80
2639;DHT22;1329;51.384;7.122;2024-01-27T04:41:31;3.60;81.00
2639;DHT22;1329;51.384;7.122;2024-01-27T04:44:00;3.60;81.60
2639;DHT22;1329;51.384;7.122;2024-01-27T04:46:28;3.60;82.40
2639;DHT22;1329;51.384;7.122;2024-01-27T04:48:57;3.60;84.20
2639;DHT22;1329;51.384;7.122;2024-01-27T04:51:25;3.60;86.20
2639;DHT22;1329;51.384;7.122;2024-01-27T04:53:52;3.60;89.10
2639;DHT22;1329;51.384;7.122;2024-01-27T04:56:20;3.60;90.50
2639;DHT22;1329;51.384;7.122;2024-01-27T04:58:48;3.60;91.40
2639;DHT22;1329;51.384;7.122;2024-01-27T05:01:17;3.60;92.20
2639;DHT22;1329;51.384;7.122;2024-01-27T05:03:45;3.60;93.00
2639;DHT22;1329;51.384;7.122;2024-01-27T05:06:12;3.60;93.60
2639;DHT22;1329;51.384;7.122;2024-01-27T05:08:40;3.60;93.60
2639;DHT22;1329;51.384;7.122;2024-01-27T05:11:11;3.70;94.00
2639;DHT22;1329;51.384;7.122;2024-01-27T05:13:40;3.60;94.50
2639;DHT22;1329;51.384;7.122;2024-01-27T05:16:07;3.60;94.70
2639;DHT22;1329;51.384;7.122;2024-01-27T05:18:36;3.60;95.00
2639;DHT22;1329;51.384;7.122;2024-01-27T05:21:04;3.70;95.50
2639;DHT22;1329;51.384;7.122;2024-01-27T05:23:32;3.70;96.20
2639;DHT22;1329;51.384;7.122;2024-01-27T05:25:59;3.70;96.60
2639;DHT22;1329;51.384;7.122;2024-01-27T05:28:26;3.70;97.10
2639;DHT22;1329;51.384;7.122;2024-01-27T05:30:54;3.70;97.50
2639;DHT22;1329;51.384;7.122;2024-01-27T05:33:21;3.70;97.90
2639;DHT22;1329;51.384;7.122;2024-01-27T05:35:51;3.70;98.60
2639;DHT22;1329;51.384;7.122;2024-01-27T05:38:18;3.70;99.90
2639;DHT22;1329;51.384;7.122;2024-01-27T05:40:46;3.70;99.90
2639;DHT22;1329;51.384;7.122;2024-01-27T05:43:14;3.70;99.90
2639;DHT22;1329;51.384;7.122;2024-01-27T05:45:43;3.70;99.90
2639;DHT22;1329;51.384;7.122;2024-01-27T05:48:11;3.70;99.90
2639;DHT22;1329;51.384;7.122;2024-01-27T05:50:41;3.70;99.90
2639;DHT22;1329;51.384;7.122;2024-01-27T05:53:11;3.70;99.90
2639;DHT22;1329;51.384;7.122;2024-01-27T05:55:39;3.70;99.90
2639;DHT22;1329;51.384;7.122;2024-01-27T05:58:07;3.70;99.90
2639;DHT22;1329;51.384;7.122;2024-01-27T06:00:34;3.70;99.90
2639;DHT22;1329;51.384;7.122;2024-01-27T06:03:02;3.70;99.90
2639;DHT22;1329;51.384;7.122;2024-01-27T06:05:30;3.70;99.90
2639;DHT22;1329;51.384;7.122;2024-01-27T06:07:57;3.70;99.90
2639;DHT22;1329;51.384;7.122;2024-01-27T06:10:27;3.70;99.90
2639;DHT22;1329;51.384;7.122;2024-01-27T06:12:56;3.70;99.90
2639;DHT22;1329;51.384;7.122;2024-01-27T06:15:24;3.70;99.90
2639;DHT22;1329;51.384;7.122;2024-01-27T06:17:52;3.60;99.90
2639;DHT22;1329;51.384;7.122;2024-01-27T06:20:19;3.70;99.90
2639;DHT22;1329;51.384;7.122;2024-01-27T06:22:47;3.70;99.90
2639;DHT22;1329;51.384;7.122;2024-01-27T06:25:14;3.70;99.90
2639;DHT22;1329;51.384;7.122;2024-01-27T06:27:44;3.70;99.90
2639;DHT22;1329;51.384;7.122;2024-01-27T06:30:12;3.70;99.90
2639;DHT22;1329;51.384;7.122;2024-01-27T06:32:41;3.70;99.90
2639;DHT22;1329;51.384;7.122;2024-01-27T06:35:08;3.70;99.90
2639;DHT22;1329;51.384;7.122;2024-01-27T06:37:36;3.60;99.90
2639;DHT22;1329;51.384;7.122;2024-01-27T06:40:05;3.60;99.90
2639;DHT22;1329;51.384;7.122;2024-01-27T06:42:34;3.60;99.90
2639;DHT22;1329;51.384;7.122;2024-01-27T06:45:04;3.60;99.90
2639;DHT22;1329;51.384;7.122;2024-01-27T06:47:32;3.60;99.90
2639;DHT22;1329;51.384;7.122;2024-01-27T06:50:00;3.60;99.90
2639;DHT22;1329;51.384;7.122;2024-01-27T06:52:27;3.60;99.90
2639;DHT22;1329;51.384;7.122;2024-01-27T06:54:55;3.60;99.90
2639;DHT22;1329;51.384;7.122;2024-01-27T06:57:23;3.60;99.90
2639;DHT22;1329;51.384;7.122;2024-01-27T06:59:52;3.60;99.90
2639;DHT22;1329;51.384;7.122;2024-01-27T07:02:22;3.60;99.90
2639;DHT22;1329;51.384;7.122;2024-01-27T07:04:50;3.60;99.90
2639;DHT22;1329;51.384;7.122;2024-01-27T07:07:17;3.60;99.90
2639;DHT22;1329;51.384;7.122;2024-01-27T07:09:46;3.60;99.90
2639;DHT22;1329;51.384;7.122;2024-01-27T07:12:14;3.50;99.90
2639;DHT22;1329;51.384;7.122;2024-01-27T07:14:41;3.50;99.90
2639;DHT22;1329;51.384;7.122;2024-01-27T07:17:09;3.50;99.90
2639;DHT22;1329;51.384;7.122;2024-01-27T07:19:38;3.50;99.90
2639;DHT22;1329;51.384;7.122;2024-01-27T07:22:06;3.50;99.90
2639;DHT22;1329;51.384;7.122;2024-01-27T07:24:34;3.50;99.90
2639;DHT22;1329;51.384;7.122;2024-01-27T07:27:02;3.50;99.90
2639;DHT22;1329;51.384;7.122;2024-01-27T07:29:30;3.50;99.90
2639;DHT22;1329;51.384;7.122;2024-01-27T07:31:58;3.50;99.90
2639;DHT22;1329;51.384;7.122;2024-01-27T07:34:26;3.50;99.90
2639;DHT22;1329;51.384;7.122;2024-01-27T07:36:55;3.50;99.90
2639;DHT22;1329;51.384;7.122;2024-01-27T07:39:24;3.50;99.90
2639;DHT22;1329;51.384;7.122;2024-01-27T07:41:51;3.50;99.90
2639;DHT22;1329;51.384;7.122;2024-01-27T07:44:19;3.50;99.90
2639;DHT22;1329;51.384;7.122;2024-01-27T07:46:46;3.50;99.90
2639;DHT22;1329;51.384;7.122;2024-01-27T07:49:14;3.50;99.90
2639;DHT22;1329;51.384;7.122;2024-01-27T07:51:41;3.50;99.90
2639;DHT22;1329;51.384;7.122;2024-01-27T07:54:10;3.50;99.90
2639;DHT22;1329;51.384;7.122;2024-01-27T07:56:38;3.60;99.90
2639;DHT22;1329;51.384;7.122;2024-01-27T07:59:07;3.50;99.90
2639;DHT22;1329;51.384;7.122;2024-01-27T08:01:39;3.50;99.90
2639;DHT22;1329;51.384;7.122;2024-01-27T08:04:07;3.50;99.90
2639;DHT22;1329;51.384;7.122;2024-01-27T08:06:45;3.50;99.90
2639;DHT22;1329;51.384;7.122;2024-01-27T08:09:14;3.60;99.90
2639;DHT22;1329;51.384;7.122;2024-01-27T08:11:42;3.60;99.90
2639;DHT22;1329;51.384;7.122;2024-01-27T08:14:09;3.60;99.90
2639;DHT22;1329;51.384;7.122;2024-01-27T08:16:37;3.60;99.90
2639;DHT22;1329;51.384;7.122;2024-01-27T08:19:05;3.70;99.90
2639;DHT22;1329;51.384;7.122;2024-01-27T08:21:33;3.70;99.90
2639;DHT22;1329;51.384;7.122;2024-01-27T08:24:00;3.70;99.90
2639;DHT22;1329;51.384;7.122;2024-01-27T08:26:29;3.70;99.90
2639;DHT22;1329;51.384;7.122;2024-01-27T08:28:56;3.80;99.90
2639;DHT22;1329;51.384;7.122;2024-01-27T08:31:27;3.80;99.90
2639;DHT22;1329;51.384;7.122;2024-01-27T08:33:55;3.80;99.90
2639;DHT22;1329;51.384;7.122;2024-01-27T08:36:23;3.90;99.90
2639;DHT22;1329;51.384;7.122;2024-01-27T08:38:51;3.90;99.90
2639;DHT22;1329;51.384;7.122;2024-01-27T08:41:18;3.90;99.90
2639;DHT22;1329;51.384;7.122;2024-01-27T08:43:47;3.90;99.90
2639;DHT22;1329;51.384;7.122;2024-01-27T08:46:14;4.00;99.90
2639;DHT22;1329;51.384;7.122;2024-01-27T08:48:44;4.00;99.90
2639;DHT22;1329;51.384;7.122;2024-01-27T08:51:11;4.00;99.90
2639;DHT22;1329;51.384;7.122;2024-01-27T08:53:39;4.00;99.90
2639;DHT22;1329;51.384;7.122;2024-01-27T08:56:06;4.10;99.90
2639;DHT22;1329;51.384;7.122;2024-01-27T08:58:34;4.10;99.90
2639;DHT22;1329;51.384;7.122;2024-01-27T09:01:03;4.10;99.90
2639;DHT22;1329;51.384;7.122;2024-01-27T09:03:33;4.10;99.90
2639;DHT22;1329;51.384;7.122;2024-01-27T09:06:01;4.20;99.90
2639;DHT22;1329;51.384;7.122;2024-01-27T09:08:28;4.20;99.90
2639;DHT22;1329;51.384;7.122;2024-01-27T09:10:55;4.20;99.90
2639;DHT22;1329;51.384;7.122;2024-01-27T09:13:23;4.20;99.90
2639;DHT22;1329;51.384;7.122;2024-01-27T09:15:50;4.20;99.90
2639;DHT22;1329;51.384;7.122;2024-01-27T09:18:19;4.30;99.90
2639;DHT22;1329;51.384;7.122;2024-01-27T09:20:48;4.30;99.90
2639;DHT22;1329;51.384;7.122;2024-01-27T09:23:15;4.30;99.90
2639;DHT22;1329;51.384;7.122;2024-01-27T09:25:43;4.40;99.90
2639;DHT22;1329;51.384;7.122;2024-01-27T09:28:11;4.40;99.90
2639;DHT22;1329;51.384;7.122;2024-01-27T09:30:40;4.50;99.90
2639;DHT22;1329;51.384;7.122;2024-01-27T09:33:07;4.50;99.90
2639;DHT22;1329;51.384;7.122;2024-01-27T09:35:36;4.60;99.90
2639;DHT22;1329;51.384;7.122;2024-01-27T09:38:03;4.60;99.90
2639;DHT22;1329;51.384;7.122;2024-01-27T09:40:33;4.60;99.90
2639;DHT22;1329;51.384;7.122;2024-01-27T09:43:00;4.70;99.90
2639;DHT22;1329;51.384;7.122;2024-01-27T09:45:28;4.70;99.90
2639;DHT22;1329;51.384;7.122;2024-01-27T09:47:57;4.80;99.90
2639;DHT22;1329;51.384;7.122;2024-01-27T09:50:25;4.80;99.90
2639;DHT22;1329;51.384;7.122;2024-01-27T09:52:53;4.80;99.90
2639;DHT22;1329;51.384;7.122;2024-01-27T09:55:21;4.90;99.90
2639;DHT22;1329;51.384;7.122;2024-01-27T09:57:49;4.90;99.90
2639;DHT22;1329;51.384;7.122;2024-01-27T10:00:16;5.00;99.90
2639;DHT22;1329;51.384;7.122;2024-01-27T10:02:46;5.00;99.90
2639;DHT22;1329;51.384;7.122;2024-01-27T10:05:13;5.00;99.90
2639;DHT22;1329;51.384;7.122;2024-01-27T10:07:41;5.10;99.90
2639;DHT22;1329;51.384;7.122;2024-01-27T10:10:10;5.10;99.90
2639;DHT22;1329;51.384;7.122;2024-01-27T10:12:40;5.20;99.90
2639;DHT22;1329;51.384;7.122;2024-01-27T10:15:18;5.20;99.90
2639;DHT22;1329;51.384;7.122;2024-01-27T10:17:46;5.20;99.90
2639;DHT22;1329;51.384;7.122;2024-01-27T10:20:13;5.30;99.90
2639;DHT22;1329;51.384;7.122;2024-01-27T10:22:42;5.30;99.90
2639;DHT22;1329;51.384;7.122;2024-01-27T10:25:12;5.30;99.90
2639;DHT22;1329;51.384;7.122;2024-01-27T10:27:40;5.40;99.90
2639;DHT22;1329;51.384;7.122;2024-01-27T10:30:15;5.40;99.90
2639;DHT22;1329;51.384;7.122;2024-01-27T10:32:44;5.50;99.90
2639;DHT22;1329;51.384;7.122;2024-01-27T10:35:21;5.50;99.90
2639;DHT22;1329;51.384;7.122;2024-01-27T10:37:51;5.60;99.90
2639;DHT22;1329;51.384;7.122;2024-01-27T10:40:20;5.70;99.90
2639;DHT22;1329;51.384;7.122;2024-01-27T10:42:58;5.70;99.90
2639;DHT22;1329;51.384;7.122;2024-01-27T10:45:33;5.80;99.90
2639;DHT22;1329;51.384;7.122;2024-01-27T10:48:03;5.90;99.90
2639;DHT22;1329;51.384;7.122;2024-01-27T10:50:35;6.00;99.90
2639;DHT22;1329;51.384;7.122;2024-01-27T10:53:04;6.00;99.90
2639;DHT22;1329;51.384;7.122;2024-01-27T10:55:34;6.00;99.90
2639;DHT22;1329;51.384;7.122;2024-01-27T10:58:02;6.10;99.90
2639;DHT22;1329;51.384;7.122;2024-01-27T11:00:30;6.10;99.90
2639;DHT22;1329;51.384;7.122;2024-01-27T11:02:59;6.10;99.90
2639;DHT22;1329;51.384;7.122;2024-01-27T11:05:31;6.10;99.90
2639;DHT22;1329;51.384;7.122;2024-01-27T11:08:03;6.20;99.90
2639;DHT22;1329;51.384;7.122;2024-01-27T11:10:32;6.20;99.90
2639;DHT22;1329;51.384;7.122;2024-01-27T11:13:04;6.30;99.90
2639;DHT22;1329;51.384;7.122;2024-01-27T11:15:32;6.30;99.90
2639;DHT22;1329;51.384;7.122;2024-01-27T11:17:59;6.30;99.90
2639;DHT22;1329;51.384;7.122;2024-01-27T11:20:31;6.40;99.90
2639;DHT22;1329;51.384;7.122;2024-01-27T11:23:08;6.40;99.90
2639;DHT22;1329;51.384;7.122;2024-01-27T11:25:37;6.50;99.90
2639;DHT22;1329;51.384;7.122;2024-01-27T11:28:11;6.50;99.90
2639;DHT22;1329;51.384;7.122;2024-01-27T11:30:39;6.50;99.90
2639;DHT22;1329;51.384;7.122;2024-01-27T11:33:11;6.60;99.90
2639;DHT22;1329;51.384;7.122;2024-01-27T11:35:38;6.60;99.90
2639;DHT22;1329;51.384;7.122;2024-01-27T11:38:05;6.70;99.90
2639;DHT22;1329;51.384;7.122;2024-01-27T11:40:32;6.70;99.90
2639;DHT22;1329;51.384;7.122;2024-01-27T11:43:02;6.70;99.90
2639;DHT22;1329;51.384;7.122;2024-01-27T11:45:30;6.80;99.90
2639;DHT22;1329;51.384;7.122;2024-01-27T11:47:58;6.80;99.90
2639;DHT22;1329;51.384;7.122;2024-01-27T11:50:27;6.80;99.90
2639;DHT22;1329;51.384;7.122;2024-01-27T11:52:54;6.90;99.90
2639;DHT22;1329;51.384;7.122;2024-01-27T11:55:21;6.90;99.90
2639;DHT22;1329;51.384;7.122;2024-01-27T11:57:48;6.90;99.90
2639;DHT22;1329;51.384;7.122;2024-01-27T12:00:17;7.00;99.90
2639;DHT22;1329;51.384;7.122;2024-01-27T12:02:45;7.00;99.90
2639;DHT22;1329;51.384;7.122;2024-01-27T12:05:17;7.00;99.90
2639;DHT22;1329;51.384;7.122;2024-01-27T12:07:44;7.10;99.90
2639;DHT22;1329;51.384;7.122;2024-01-27T12:10:11;7.10;99.90
2639;DHT22;1329;51.384;7.122;2024-01-27T12:12:39;7.10;99.90
2639;DHT22;1329;51.384;7.122;2024-01-27T12:15:06;7.10;99.90
2639;DHT22;1329;51.384;7.122;2024-01-27T12:17:35;7.20;99.90
2639;DHT22;1329;51.384;7.122;2024-01-27T12:20:14;7.20;99.90
2639;DHT22;1329;51.384;7.122;2024-01-27T12:22:42;7.20;99.90
2639;DHT22;1329;51.384;7.122;2024-01-27T12:25:11;7.20;99.90
2639;DHT22;1329;51.384;7.122;2024-01-27T12:27:42;7.20;99.90
2639;DHT22;1329;51.384;7.122;2024-01-27T12:30:10;7.30;99.90
2639;DHT22;1329;51.384;7.122;2024-01-27T12:32:40;7.30;99.90
2639;DHT22;1329;51.384;7.122;2024-01-27T12:35:08;7.30;99.90
2639;DHT22;1329;51.384;7.122;2024-01-27T12:37:36;7.30;99.90
2639;DHT22;1329;51.384;7.122;2024-01-27T12:40:17;7.30;99.90
2639;DHT22;1329;51.384;7.122;2024-01-27T12:42:45;7.30;99.90
2639;DHT22;1329;51.384;7.122;2024-01-27T12:45:12;7.40;99.90
2639;DHT22;1329;51.384;7.122;2024-01-27T12:47:40;7.40;99.90
2639;DHT22;1329;51.384;7.122;2024-01-27T12:50:09;7.40;99.90
2639;DHT22;1329;51.384;7.122;2024-01-27T12:52:36;7.40;99.90
2639;DHT22;1329;51.384;7.122;2024-01-27T12:55:04;7.40;99.90
2639;DHT22;1329;51.384;7.122;2024-01-27T12:57:32;7.50;99.90
2639;DHT22;1329;51.384;7.122;2024-01-27T12:59:59;7.50;99.90
2639;DHT22;1329;51.384;7.122;2024-01-27T13:02:29;7.50;99.90
2639;DHT22;1329;51.384;7.122;2024-01-27T13:04:58;7.50;99.90
2639;DHT22;1329;51.384;7.122;2024-01-27T13:07:25;7.60;99.90
2639;DHT22;1329;51.384;7.122;2024-01-27T13:09:52;7.50;99.90
2639;DHT22;1329;51.384;7.122;2024-01-27T13:12:19;7.60;99.90
2639;DHT22;1329;51.384;7.122;2024-01-27T13:14:47;7.60;99.90
2639;DHT22;1329;51.384;7.122;2024-01-27T13:17:14;7.60;99.90
2639;DHT22;1329;51.384;7.122;2024-01-27T13:19:41;7.60;99.90
2639;DHT22;1329;51.384;7.122;2024-01-27T13:22:12;7.70;99.90
2639;DHT22;1329;51.384;7.122;2024-01-27T13:24:39;7.60;99.90
2639;DHT22;1329;51.384;7.122;2024-01-27T13:27:07;7.70;99.90
2639;DHT22;1329;51.384;7.122;2024-01-27T13:29:35;7.60;99.90
2639;DHT22;1329;51.384;7.122;2024-01-27T13:32:02;7.70;99.90
2639;DHT22;1329;51.384;7.122;2024-01-27T13:34:29;7.70;99.90
2639;DHT22;1329;51.384;7.122;2024-01-27T13:36:58;7.80;99.90
2639;DHT22;1329;51.384;7.122;2024-01-27T13:39:29;7.80;99.90
2639;DHT22;1329;51.384;7.122;2024-01-27T13:41:56;7.80;99.90
2639;DHT22;1329;51.384;7.122;2024-01-27T13:44:23;7.80;99.90
2639;DHT22;1329;51.384;7.122;2024-01-27T13:46:51;7.80;99.90
2639;DHT22;1329;51.384;7.122;2024-01-27T13:49:19;7.80;99.90
2639;DHT22;1329;51.384;7.122;2024-01-27T13:51:46;7.90;99.90
2639;DHT22;1329;51.384;7.122;2024-01-27T13:54:14;7.90;99.90
2639;DHT22;1329;51.384;7.122;2024-01-27T13:56:43;7.90;99.90
2639;DHT22;1329;51.384;7.122;2024-01-27T13:59:10;7.90;99.90
2639;DHT22;1329;51.384;7.122;2024-01-27T14:01:38;7.90;99.90
2639;DHT22;1329;51.384;7.122;2024-01-27T14:04:05;7.90;99.90
2639;DHT22;1329;51.384;7.122;2024-01-27T14:06:33;8.00;99.90
2639;DHT22;1329;51.384;7.122;2024-01-27T14:09:01;8.00;99.90
2639;DHT22;1329;51.384;7.122;2024-01-27T14:11:28;8.00;99.90
2639;DHT22;1329;51.384;7.122;2024-01-27T14:13:57;8.00;99.90
2639;DHT22;1329;51.384;7.122;2024-01-27T14:16:24;8.00;99.90
2639;DHT22;1329;51.384;7.122;2024-01-27T14:18:51;8.00;99.90
2639;DHT22;1329;51.384;7.122;2024-01-27T14:21:18;8.00;99.90
2639;DHT22;1329;51.384;7.122;2024-01-27T14:23:46;8.00;99.90
2639;DHT22;1329;51.384;7.122;2024-01-27T14:26:14;8.00;99.90
2639;DHT22;1329;51.384;7.122;2024-01-27T14:28:41;8.00;99.90
2639;DHT22;1329;51.384;7.122;2024-01-27T14:31:11;8.00;99.90
2639;DHT22;1329;51.384;7.122;2024-01-27T14:33:39;8.00;99.90
2639;DHT22;1329;51.384;7.122;2024-01-27T14:36:07;7.90;99.90
2639;DHT22;1329;51.384;7.122;2024-01-27T14:38:37;7.90;99.90
2639;DHT22;1329;51.384;7.122;2024-01-27T14:41:04;7.90;99.90
2639;DHT22;1329;51.384;7.122;2024-01-27T14:43:31;7.90;99.90
2639;DHT22;1329;51.384;7.122;2024-01-27T14:45:58;7.90;99.90
2639;DHT22;1329;51.384;7.122;2024-01-27T14:48:27;7.80;99.90
2639;DHT22;1329;51.384;7.122;2024-01-27T14:50:54;7.80;99.90
2639;DHT22;1329;51.384;7.122;2024-01-27T14:53:24;7.80;99.90
2639;DHT22;1329;51.384;7.122;2024-01-27T14:55:51;7.80;99.90
2639;DHT22;1329;51.384;7.122;2024-01-27T14:58:18;7.80;99.90
2639;DHT22;1329;51.384;7.122;2024-01-27T15:00:46;7.70;99.90
2639;DHT22;1329;51.384;7.122;2024-01-27T15:03:17;7.70;99.90
2639;DHT22;1329;51.384;7.122;2024-01-27T15:05:46;7.70;99.90
2639;DHT22;1329;51.384;7.122;2024-01-27T15:08:14;7.70;99.90
2639;DHT22;1329;51.384;7.122;2024-01-27T15:10:42;7.70;99.90
2639;DHT22;1329;51.384;7.122;2024-01-27T15:13:09;7.70;99.90
2639;DHT22;1329;51.384;7.122;2024-01-27T15:15:37;7.70;99.90
2639;DHT22;1329;51.384;7.122;2024-01-27T15:18:05;7.60;99.90
2639;DHT22;1329;51.384;7.122;2024-01-27T15:20:35;7.70;99.90
2639;DHT22;1329;51.384;7.122;2024-01-27T15:23:04;7.70;99.90
2639;DHT22;1329;51.384;7.122;2024-01-27T15:25:31;7.60;99.90
2639;DHT22;1329;51.384;7.122;2024-01-27T15:27:58;7.60;99.90
2639;DHT22;1329;51.384;7.122;2024-01-27T15:30:24;7.60;99.90
2639;DHT22;1329;51.384;7.122;2024-01-27T15:32:52;7.60;99.90
2639;DHT22;1329;51.384;7.122;2024-01-27T15:35:19;7.50;99.90
2639;DHT22;1329;51.384;7.122;2024-01-27T15:37:46;7.50;99.90
2639;DHT22;1329;51.384;7.122;2024-01-27T15:40:15;7.50;99.90
2639;DHT22;1329;51.384;7.122;2024-01-27T15:42:42;7.40;99.90
2639;DHT22;1329;51.384;7.122;2024-01-27T15:45:09;7.40;99.90
2639;DHT22;1329;51.384;7.122;2024-01-27T15:47:37;7.30;99.90
2639;DHT22;1329;51.384;7.122;2024-01-27T15:50:04;7.30;99.90
2639;DHT22;1329;51.384;7.122;2024-01-27T15:52:32;7.20;99.90
2639;DHT22;1329;51.384;7.122;2024-01-27T15:54:59;7.20;99.90
2639;DHT22;1329;51.384;7.122;2024-01-27T15:57:27;7.10;99.90
2639;DHT22;1329;51.384;7.122;2024-01-27T15:59:56;7.00;99.90
2639;DHT22;1329;51.384;7.122;2024-01-27T16:02:23;7.00;99.90
2639;DHT22;1329;51.384;7.122;2024-01-27T16:04:50;6.90;99.90
2639;DHT22;1329;51.384;7.122;2024-01-27T16:07:17;6.80;99.90
2639;DHT22;1329;51.384;7.122;2024-01-27T16:09:46;6.70;99.90
2639;DHT22;1329;51.384;7.122;2024-01-27T16:12:13;6.70;99.90
2639;DHT22;1329;51.384;7.122;2024-01-27T16:14:42;6.60;99.90
2639;DHT22;1329;51.384;7.122;2024-01-27T16:17:09;6.50;99.90
2639;DHT22;1329;51.384;7.122;2024-01-27T16:19:36;6.50;99.90
2639;DHT22;1329;51.384;7.122;2024-01-27T16:22:03;6.40;99.90